Time;durP1;ratioP1;P1;durP2;ratioP2;P2;SDS_P1;SDS_P2;PMS_P1;PMS_P2;Temp;Humidity;BMP_temperature;BMP_pressure;BME280_temperature;BME280_humidity;BME280_pressure;Samples;Min_cycle;Max_cycle;Signal;HPM_P1;HPM_P2
2022/02/07 00:00:03;;;;;;;39.63;15.55;;;;;;;2.81;53.06;98062.25;5076971;28;20130;-62
2022/02/07 00:02:49;;;;;;;40.63;16.90;;;;;;;2.81;52.92;98068.31;5058739;28;20101;-61
2022/02/07 00:05:16;;;;;;;39.47;16.63;;;;;;;2.89;52.88;98070.19;5060629;28;20569;-62
2022/02/07 00:07:42;;;;;;;42.23;16.20;;;;;;;2.78;52.67;98062.56;5092890;28;20040;-63
2022/02/07 00:10:08;;;;;;;38.57;14.97;;;;;;;2.82;53.07;98067.34;5092796;28;20044;-62
2022/02/07 00:12:34;;;;;;;48.13;16.70;;;;;;;2.64;53.57;98066.50;5074943;28;20047;-62
2022/02/07 00:15:00;;;;;;;40.33;14.40;;;;;;;2.73;53.39;98067.41;5074504;28;20044;-62
2022/02/07 00:17:26;;;;;;;42.47;15.90;;;;;;;2.74;53.25;98061.19;5074528;28;20876;-62
2022/02/07 00:19:51;;;;;;;39.97;14.07;;;;;;;2.56;53.56;98074.25;5057749;28;20044;-62
2022/02/07 00:22:17;;;;;;;46.43;15.67;;;;;;;2.35;53.92;98039.63;5057792;28;20043;-63
2022/02/07 00:24:43;;;;;;;49.80;17.23;;;;;;;2.41;54.54;98067.03;5074358;28;20051;-64
2022/02/07 00:27:09;;;;;;;46.33;15.23;;;;;;;2.47;54.39;98062.03;5041198;28;20036;-64
2022/02/07 00:29:35;;;;;;;47.63;16.20;;;;;;;2.42;54.47;98066.03;5074767;28;20539;-63
2022/02/07 00:32:01;;;;;;;51.60;17.27;;;;;;;2.33;55.19;98057.28;5057434;28;20052;-62
2022/02/07 00:34:27;;;;;;;47.90;15.60;;;;;;;2.38;55.53;98052.44;5040984;28;20036;-60
2022/02/07 00:36:53;;;;;;;40.57;15.20;;;;;;;2.38;55.36;98054.22;5057423;28;20054;-60
2022/02/07 00:39:28;;;;;;;57.43;17.70;;;;;;;2.44;55.85;98044.00;5057167;28;20048;-60
2022/02/07 00:42:02;;;;;;;43.87;15.87;;;;;;;2.37;55.71;98016.72;5057264;28;20407;-61
2022/02/07 00:44:28;;;;;;;31.63;12.17;;;;;;;2.43;56.28;98039.72;5090518;28;20044;-61
2022/02/07 00:46:58;;;;;;;38.73;14.37;;;;;;;2.61;55.84;98051.06;5056065;28;20051;-64
2022/02/07 00:49:25;;;;;;;36.47;13.13;;;;;;;2.79;56.47;98046.66;5071663;28;20040;-59
2022/02/07 00:51:51;;;;;;;38.87;14.27;;;;;;;2.55;56.01;98004.47;5089683;28;20139;-63
2022/02/07 00:54:17;;;;;;;36.77;13.27;;;;;;;2.58;55.82;98014.69;5071234;28;20093;-64
2022/02/07 00:56:45;;;;;;;39.67;14.70;;;;;;;2.76;55.63;98044.34;5071352;28;20085;-63
2022/02/07 00:59:11;;;;;;;43.87;14.17;;;;;;;2.78;55.25;98041.56;5071303;28;20093;-62
2022/02/07 01:01:37;;;;;;;41.80;14.10;;;;;;;2.72;55.80;98037.72;5038509;28;20036;-60
2022/02/07 01:04:04;;;;;;;38.50;13.23;;;;;;;2.75;55.33;98032.19;5056917;28;20530;-60
2022/02/07 01:06:38;;;;;;;39.13;14.13;;;;;;;2.83;55.18;98036.72;5073967;28;20036;-60
2022/02/07 01:09:23;;;;;;;32.17;13.00;;;;;;;2.84;55.24;98043.59;5073552;28;20047;-63
2022/02/07 01:14:43;;;;;;;44.53;13.83;;;;;;;2.66;55.76;98021.81;5074321;28;20048;-63
2022/02/07 01:18:08;;;;;;;43.40;14.30;;;;;;;2.82;55.42;98022.78;5060396;28;20512;-60
2022/02/07 01:50:49;;;;;;;35.07;14.57;;;;;;;2.81;55.44;98026.38;5072941;28;20454;-63
2022/02/07 01:56:10;;;;;;;34.50;11.77;;;;;;;2.97;54.91;98025.69;5060114;28;20145;-61
2022/02/07 01:58:47;;;;;;;41.93;14.93;;;;;;;2.97;54.68;98020.44;5072624;28;20031;-61
2022/02/07 02:01:15;;;;;;;41.83;13.37;;;;;;;2.89;55.11;98015.16;5039846;28;20050;-61
2022/02/07 02:03:41;;;;;;;36.87;13.47;;;;;;;3.16;55.02;98013.28;5072545;28;20052;-59
2022/02/07 02:06:10;;;;;;;42.03;13.63;;;;;;;3.09;54.42;98014.81;5071961;28;20047;-61
2022/02/07 02:09:00;;;;;;;55.83;14.43;;;;;;;2.89;54.66;97988.94;5084473;28;20054;-60
2022/02/07 02:11:29;;;;;;;47.08;14.05;;;;;;;2.95;54.69;98007.50;5056330;28;20541;-60
2022/02/07 02:17:04;;;;;;;38.73;13.23;;;;;;;3.09;54.56;97999.09;5072425;28;20036;-62
2022/02/07 02:34:00;;;;;;;27.80;11.60;;;;;;;3.56;53.47;97977.78;5071663;28;20127;-61
2022/02/07 02:47:22;;;;;;;31.00;11.87;;;;;;;3.50;53.78;97987.13;5069104;28;20046;-65
2022/02/07 02:50:26;;;;;;;27.90;11.63;;;;;;;3.17;53.91;97959.00;5054394;28;20112;-62
2022/02/07 02:52:52;;;;;;;32.57;12.03;;;;;;;3.44;53.80;97980.66;5087974;28;20048;-62
2022/02/07 02:55:18;;;;;;;26.23;10.73;;;;;;;3.32;53.69;97976.66;5070099;28;20077;-62
2022/02/07 02:57:44;;;;;;;26.80;11.47;;;;;;;3.42;53.86;97982.66;5090235;28;20055;-61
2022/02/07 03:00:11;;;;;;;25.90;11.07;;;;;;;3.56;53.61;97981.25;5071680;28;20067;-62
2022/02/07 03:02:38;;;;;;;28.10;11.80;;;;;;;3.26;54.09;97984.31;5071923;28;20039;-63
2022/02/07 03:05:04;;;;;;;27.43;11.73;;;;;;;3.45;53.60;97999.88;5089618;28;20330;-61
2022/02/07 03:07:29;;;;;;;27.67;11.20;;;;;;;3.36;53.78;97991.13;5054903;28;20044;-60
2022/02/07 03:09:58;;;;;;;28.43;11.73;;;;;;;3.24;53.88;97981.84;5071470;28;20097;-62
2022/02/07 03:12:25;;;;;;;36.07;12.00;;;;;;;3.36;53.82;97985.06;5039166;28;20036;-60
2022/02/07 03:14:51;;;;;;;28.37;11.73;;;;;;;3.40;53.80;97976.72;5089845;28;20094;-60
2022/02/07 03:17:16;;;;;;;31.10;12.90;;;;;;;3.43;53.64;97976.41;5056263;28;20518;-66
2022/02/07 03:19:42;;;;;;;29.50;11.33;;;;;;;3.65;53.16;97974.22;5059589;28;20047;-59
2022/02/07 03:22:09;;;;;;;33.07;12.27;;;;;;;3.63;53.33;97963.91;5042397;28;20044;-60
2022/02/07 03:24:35;;;;;;;39.97;12.20;;;;;;;3.83;52.91;97961.88;5075308;28;20055;-62
2022/02/07 03:27:16;;;;;;;32.00;12.13;;;;;;;3.80;52.84;97970.06;5044114;28;20044;-60
2022/02/07 03:29:48;;;;;;;30.17;11.67;;;;;;;3.82;52.86;97962.84;5043966;28;20036;-62
2022/02/07 03:32:18;;;;;;;34.83;12.70;;;;;;;3.99;52.81;97964.56;5058421;28;20173;-64
2022/02/07 03:34:54;;;;;;;29.53;12.50;;;;;;;3.87;52.91;97961.41;5042936;28;20458;-62
2022/02/07 03:37:20;;;;;;;37.13;12.70;;;;;;;3.84;53.30;97961.72;5025467;28;20130;-60
2022/02/07 03:39:47;;;;;;;33.40;13.27;;;;;;;3.76;53.59;97950.34;5058429;28;20039;-61
2022/02/07 03:42:15;;;;;;;34.13;13.40;;;;;;;3.85;53.56;97950.25;5075270;28;20052;-60
2022/02/07 03:44:49;;;;;;;33.33;13.63;;;;;;;3.70;53.85;97957.06;5058074;28;20044;-63
2022/02/07 03:47:15;;;;;;;34.60;13.30;;;;;;;3.85;53.82;97950.25;5058201;28;20134;-61
2022/02/07 03:49:40;;;;;;;33.03;13.83;;;;;;;3.59;54.02;97940.75;5058129;28;20200;-60
2022/02/07 03:52:08;;;;;;;29.70;13.03;;;;;;;3.90;54.07;97949.75;5041272;28;20560;-61
2022/02/07 03:54:36;;;;;;;33.73;13.37;;;;;;;3.59;54.30;97917.13;5074634;28;20065;-61
2022/02/07 03:57:02;;;;;;;32.97;14.33;;;;;;;3.93;54.00;97946.81;5041230;28;20035;-61
2022/02/07 03:59:28;;;;;;;30.50;12.80;;;;;;;3.91;54.07;97946.16;5057675;28;20511;-62
2022/02/07 04:01:54;;;;;;;39.10;13.67;;;;;;;4.00;53.98;97945.22;5074466;28;20040;-64
2022/02/07 04:04:29;;;;;;;28.73;12.17;;;;;;;3.66;54.03;97913.72;5055295;28;20059;-60
2022/02/07 04:06:54;;;;;;;35.73;12.67;;;;;;;3.85;54.08;97902.97;5071248;28;20048;-62
2022/02/07 04:09:34;;;;;;;31.73;12.77;;;;;;;3.89;53.96;97940.25;5040292;28;20123;-61
2022/02/07 04:12:08;;;;;;;33.03;13.90;;;;;;;4.02;53.91;97938.00;5038557;28;20044;-61
2022/02/07 04:14:41;;;;;;;32.83;13.77;;;;;;;4.14;53.62;97939.34;5039574;28;20444;-63
2022/02/07 04:17:21;;;;;;;27.17;12.80;;;;;;;3.96;54.12;97938.63;5054774;28;20036;-62
2022/02/07 04:19:56;;;;;;;33.10;13.37;;;;;;;3.86;54.04;97948.44;5071227;28;20178;-61
2022/02/07 04:22:22;;;;;;;31.90;12.47;;;;;;;3.96;54.04;97920.25;5039910;28;20445;-61
2022/02/07 04:25:14;;;;;;;26.13;11.47;;;;;;;4.11;53.71;97935.25;5051346;28;20198;-61
2022/02/07 04:27:55;;;;;;;;;;;;;;;4.62;52.85;97928.97;5056963;28;20133;-63
2022/02/07 04:30:25;;;;;;;26.60;11.73;;;;;;;3.96;53.60;97933.38;5037879;28;19965;-64
2022/02/07 04:32:51;;;;;;;31.17;15.30;;;;;;;3.82;54.66;97924.28;5054236;28;20560;-70
2022/02/07 04:35:17;;;;;;;28.90;13.17;;;;;;;3.87;54.32;97934.31;5071765;28;20044;-63
2022/02/07 04:37:43;;;;;;;29.40;12.53;;;;;;;3.81;54.73;97919.19;5053783;28;20040;-63
2022/02/07 04:40:09;;;;;;;30.07;13.70;;;;;;;4.16;54.18;97924.25;5036853;28;20036;-61
2022/02/07 04:42:39;;;;;;;34.40;13.17;;;;;;;3.93;54.60;97921.41;5070060;28;20040;-64
2022/02/07 04:45:27;;;;;;;30.73;14.67;;;;;;;3.98;54.53;97926.16;5069882;28;20393;-58
2022/02/07 04:53:37;;;;;;;26.43;12.97;;;;;;;4.19;53.81;97923.94;5088654;28;20044;-66
2022/02/07 04:57:01;;;;;;;27.97;12.57;;;;;;;4.10;53.99;97932.78;5089641;28;20039;-63
2022/02/07 04:59:09;;;;;;;28.13;12.13;;;;;;;4.12;53.67;97892.22;5089712;28;20131;-61
2022/02/07 05:02:15;;;;;;;29.67;12.73;;;;;;;4.25;53.66;97929.38;5089543;28;20051;-60
2022/02/07 05:04:33;;;;;;;30.93;12.20;;;;;;;4.20;53.61;97926.41;5103641;28;20043;-63
2022/02/07 05:15:16;;;;;;;27.93;11.47;;;;;;;4.25;53.57;97933.81;5089886;28;20040;-64
2022/02/07 05:17:42;;;;;;;27.37;12.17;;;;;;;4.28;53.90;97928.22;5089913;28;20047;-59
2022/02/07 05:20:27;;;;;;;25.37;12.33;;;;;;;4.36;54.32;97925.63;5093252;28;20047;-59
2022/02/07 05:23:05;;;;;;;24.43;12.40;;;;;;;4.34;54.00;97919.69;5092392;28;20491;-63
2022/02/07 05:25:40;;;;;;;34.07;14.37;;;;;;;4.21;54.24;97920.19;5090926;28;20056;-60
2022/02/07 05:28:18;;;;;;;28.10;13.07;;;;;;;4.43;53.76;97927.44;5092850;28;20085;-60
2022/02/07 05:30:51;;;;;;;33.43;13.13;;;;;;;4.44;53.46;97910.72;5076659;28;20096;-59
2022/02/07 05:33:52;;;;;;;28.95;12.27;;;;;;;4.63;53.31;97914.81;5068037;28;20481;-60
2022/02/07 05:36:27;;;;;;;30.30;13.23;;;;;;;4.52;53.44;97926.47;5076483;28;20043;-60
2022/02/07 05:39:19;;;;;;;32.20;12.63;;;;;;;4.50;53.48;97925.84;5092315;28;20423;-60
2022/02/07 05:42:03;;;;;;;30.23;12.40;;;;;;;4.57;53.16;97921.56;5093134;28;20043;-61
2022/02/07 05:44:49;;;;;;;33.13;12.67;;;;;;;4.70;53.25;97926.34;5091060;28;20142;-61
2022/02/07 05:47:42;;;;;;;27.60;12.33;;;;;;;4.67;53.11;97930.13;5096170;28;20694;-64
2022/02/07 05:50:46;;;;;;;24.37;12.17;;;;;;;4.65;53.03;97923.38;5031531;28;20041;-62
2022/02/07 05:53:12;;;;;;;29.63;11.20;;;;;;;4.49;53.39;97928.63;5047350;28;20040;-65
2022/02/07 05:56:08;;;;;;;26.43;12.33;;;;;;;4.65;53.56;97923.38;5071824;28;20058;-61
2022/02/07 05:59:12;;;;;;;20.17;10.50;;;;;;;4.59;53.34;97927.50;5046771;28;20041;-60
2022/02/07 06:02:10;;;;;;;22.63;10.80;;;;;;;4.70;53.21;97908.78;4993289;28;20064;-61
2022/02/07 06:04:36;;;;;;;20.93;9.63;;;;;;;4.77;52.73;97938.69;5062200;28;20051;-62
2022/02/07 06:07:02;;;;;;;20.60;9.73;;;;;;;4.74;52.91;97923.22;5053960;28;20036;-63
2022/02/07 06:09:28;;;;;;;19.17;10.47;;;;;;;4.69;53.10;97920.25;5038671;28;20051;-60
2022/02/07 06:11:55;;;;;;;22.70;9.50;;;;;;;4.84;52.94;97936.22;5071110;28;20047;-64
2022/02/07 06:14:22;;;;;;;20.57;10.10;;;;;;;4.71;53.15;97923.56;5071671;28;20492;-60
2022/02/07 06:16:49;;;;;;;26.10;10.60;;;;;;;4.81;53.05;97926.03;5055036;28;20051;-60
2022/02/07 06:19:15;;;;;;;22.90;11.33;;;;;;;4.94;52.74;97921.09;5071448;28;20040;-59
2022/02/07 06:21:43;;;;;;;18.97;9.67;;;;;;;4.66;53.25;97917.94;5071716;28;20042;-61
2022/02/07 06:24:09;;;;;;;18.77;10.57;;;;;;;4.69;53.04;97927.34;5089356;28;20043;-59
2022/02/07 06:26:35;;;;;;;20.10;10.23;;;;;;;4.98;52.90;97925.06;5055054;28;20040;-60
2022/02/07 06:29:07;;;;;;;20.40;10.27;;;;;;;5.00;52.54;97944.09;5054445;28;20040;-59
2022/02/07 06:31:34;;;;;;;19.93;10.30;;;;;;;4.99;52.62;97930.16;5071533;28;20044;-62
2022/02/07 06:34:01;;;;;;;18.30;9.87;;;;;;;4.95;52.74;97918.28;5089277;28;20039;-61
2022/02/07 06:36:27;;;;;;;26.70;10.43;;;;;;;4.93;52.53;97951.03;5071350;28;20048;-60
2022/02/07 06:38:54;;;;;;;18.37;9.27;;;;;;;4.94;52.72;97940.34;5070925;28;20093;-58
2022/02/07 06:41:20;;;;;;;31.50;11.13;;;;;;;4.94;52.70;97939.50;5054630;28;20047;-61
2022/02/07 06:43:46;;;;;;;17.63;9.57;;;;;;;4.98;52.55;97932.94;5071156;28;20626;-62
2022/02/07 06:46:12;;;;;;;24.07;10.33;;;;;;;4.92;52.41;97936.22;5070895;28;20555;-62
2022/02/07 06:48:40;;;;;;;18.97;10.03;;;;;;;4.96;52.69;97925.22;5071210;28;20039;-60
2022/02/07 06:51:09;;;;;;;19.13;10.13;;;;;;;5.06;52.73;97922.41;5054293;28;20044;-64
2022/02/07 06:53:37;;;;;;;22.13;10.17;;;;;;;5.04;52.66;97935.72;5024650;28;20036;-64
2022/02/07 06:56:04;;;;;;;19.73;10.03;;;;;;;5.29;52.37;97926.00;5075261;28;20054;-63
2022/02/07 06:58:32;;;;;;;23.97;10.50;;;;;;;5.18;52.31;97934.25;5058896;28;20054;-63
2022/02/07 07:01:00;;;;;;;16.53;9.23;;;;;;;5.12;52.43;97932.25;5058083;28;20476;-65
2022/02/07 07:03:26;;;;;;;19.43;10.10;;;;;;;5.18;52.38;97936.88;5091669;28;20056;-66
2022/02/07 07:05:54;;;;;;;20.73;10.03;;;;;;;5.18;52.72;97937.69;5075301;28;20861;-65
2022/02/07 07:08:22;;;;;;;22.07;10.63;;;;;;;5.33;52.07;97929.97;5042225;28;20054;-65
2022/02/07 07:10:47;;;;;;;18.70;10.90;;;;;;;5.12;52.50;97930.47;5074929;28;20039;-65
2022/02/07 07:13:15;;;;;;;31.10;11.77;;;;;;;5.25;52.43;97908.91;5073694;28;20472;-66
2022/02/07 07:16:14;;;;;;;19.03;10.47;;;;;;;5.51;51.50;97937.63;5074810;28;20047;-66
2022/02/07 07:18:30;;;;;;;19.57;10.40;;;;;;;5.55;51.61;97931.06;5074228;28;20142;-66
2022/02/07 07:20:56;;;;;;;26.97;10.77;;;;;;;5.38;52.00;97938.19;5074803;28;20407;-65
2022/02/07 07:23:24;;;;;;;23.80;10.83;;;;;;;5.53;51.93;97940.94;5074420;28;20105;-66
2022/02/07 07:25:53;;;;;;;25.80;10.98;;;;;;;5.64;51.66;97932.69;5074778;28;20043;-65
2022/02/07 07:28:22;;;;;;;18.93;10.20;;;;;;;5.53;51.56;97936.50;5074670;28;20070;-65
2022/02/07 07:30:54;;;;;;;19.90;10.50;;;;;;;5.77;51.02;97931.16;5074643;28;20412;-65
2022/02/07 07:33:25;;;;;;;25.07;10.13;;;;;;;5.65;51.06;97900.91;5074003;28;20047;-66
2022/02/07 07:35:52;;;;;;;24.77;11.97;;;;;;;5.79;50.84;97894.13;5074701;28;20051;-65
2022/02/07 07:38:18;;;;;;;20.07;11.20;;;;;;;5.94;50.88;97903.81;5074472;28;20693;-65
2022/02/07 07:40:46;;;;;;;22.00;9.97;;;;;;;5.64;50.93;97898.47;5074610;28;20054;-65
2022/02/07 07:43:18;;;;;;;20.97;10.70;;;;;;;5.86;50.64;97917.00;5092240;28;20085;-65
2022/02/07 07:45:56;;;;;;;24.37;11.47;;;;;;;6.04;50.63;97933.38;5074939;28;20054;-64
2022/02/07 07:48:54;;;;;;;24.07;11.33;;;;;;;5.93;50.85;97936.44;5023320;28;20055;-63
2022/02/07 07:51:52;;;;;;;21.57;11.70;;;;;;;6.08;50.94;97932.06;5081230;28;20523;-64
2022/02/07 07:54:57;;;;;;;31.07;13.03;;;;;;;6.14;51.04;97920.00;5036232;28;20107;-63
2022/02/07 08:03:00;;;;;;;27.87;12.90;;;;;;;5.88;51.25;97917.66;5056952;28;20075;-67
2022/02/07 08:08:24;;;;;;;25.93;13.60;;;;;;;5.95;50.75;97930.97;5074058;28;20070;-62
2022/02/07 08:11:05;;;;;;;26.03;13.70;;;;;;;6.25;50.81;97933.66;5073921;28;20036;-64
2022/02/07 08:13:40;;;;;;;31.90;14.53;;;;;;;5.74;51.33;97925.41;5058977;28;20047;-64
2022/02/07 08:16:12;;;;;;;28.63;15.60;;;;;;;6.07;51.35;97930.44;5073771;28;20496;-64
2022/02/07 08:18:38;;;;;;;31.67;13.63;;;;;;;6.10;51.33;97913.47;5073363;28;20101;-64
2022/02/07 08:21:04;;;;;;;34.10;15.57;;;;;;;6.01;51.39;97931.09;5091721;28;20446;-64
2022/02/07 08:23:30;;;;;;;30.37;15.50;;;;;;;5.80;51.29;97907.13;5091675;28;20085;-65
2022/02/07 08:25:58;;;;;;;29.87;15.20;;;;;;;5.72;52.07;97916.88;5073873;28;20036;-65
2022/02/07 08:28:24;;;;;;;29.73;14.80;;;;;;;5.72;51.75;97914.25;5073955;28;20131;-65
2022/02/07 08:30:49;;;;;;;28.77;16.20;;;;;;;5.71;51.71;97884.44;5091598;28;20123;-65
2022/02/07 08:33:15;;;;;;;32.03;15.93;;;;;;;5.91;51.73;97909.41;5090884;28;20032;-64
2022/02/07 08:35:41;;;;;;;28.23;15.70;;;;;;;6.06;51.08;97917.41;5091515;28;20119;-64
2022/02/07 08:38:07;;;;;;;28.17;14.07;;;;;;;6.10;50.78;97893.22;5073301;28;20048;-64
2022/02/07 08:40:33;;;;;;;27.30;13.27;;;;;;;6.35;49.97;97907.88;5073422;28;20071;-65
2022/02/07 08:43:00;;;;;;;29.20;14.17;;;;;;;6.59;49.78;97891.94;5091729;28;20059;-65
2022/02/07 08:45:26;;;;;;;36.07;14.97;;;;;;;6.65;49.62;97899.13;5072909;28;20094;-64
2022/02/07 08:47:56;;;;;;;28.03;14.57;;;;;;;6.58;49.46;97887.63;5091059;28;21051;-64
2022/02/07 08:50:27;;;;;;;32.70;14.43;;;;;;;6.99;49.54;97916.34;5070026;28;20044;-68
2022/02/07 08:52:55;;;;;;;24.25;13.48;;;;;;;6.58;49.08;97929.81;5082964;28;20103;-65
2022/02/07 08:55:31;;;;;;;28.90;13.90;;;;;;;6.50;49.21;97914.03;5075313;28;20127;-65
2022/02/07 08:58:02;;;;;;;28.77;12.47;;;;;;;6.50;49.54;97900.84;5094448;28;20039;-65
2022/02/07 09:03:25;;;;;;;27.53;13.83;;;;;;;6.56;49.37;97894.91;5110180;28;20081;-65
2022/02/07 09:09:08;;;;;;;24.63;13.90;;;;;;;7.08;48.34;97910.84;5111266;28;20039;-64
2022/02/07 09:11:23;;;;;;;28.93;13.17;;;;;;;7.15;48.23;97895.09;5094270;28;20858;-67
2022/02/07 09:13:49;;;;;;;35.80;14.33;;;;;;;7.13;48.40;97897.94;5091555;28;20047;-65
2022/02/07 09:16:29;;;;;;;27.13;13.57;;;;;;;7.51;47.92;97894.25;5110984;28;20380;-65
2022/02/07 09:18:57;;;;;;;21.83;11.05;;;;;;;7.26;47.49;97889.41;5091706;28;20035;-65
2022/02/07 09:21:23;;;;;;;23.60;12.27;;;;;;;7.38;47.20;97893.25;5075488;28;21054;-65
2022/02/07 09:23:49;;;;;;;20.63;11.47;;;;;;;7.43;47.06;97909.34;5109831;28;20039;-65
2022/02/07 09:26:15;;;;;;;23.57;12.47;;;;;;;7.31;46.57;97897.56;5092145;28;20043;-66
2022/02/07 09:28:42;;;;;;;23.33;12.10;;;;;;;7.50;46.59;97899.72;5092150;28;20067;-65
2022/02/07 09:31:09;;;;;;;24.03;11.33;;;;;;;7.47;46.31;97892.97;5110153;28;20116;-65
2022/02/07 09:33:35;;;;;;;27.13;11.87;;;;;;;7.50;46.21;97895.25;5065116;28;20044;-67
2022/02/07 09:36:02;;;;;;;26.60;11.37;;;;;;;7.52;46.44;97887.16;5072552;28;20645;-64
2022/02/07 09:38:28;;;;;;;24.53;12.03;;;;;;;7.03;46.62;97889.41;5038551;28;20131;-65
2022/02/07 09:40:54;;;;;;;25.97;12.10;;;;;;;7.04;47.01;97887.63;5090165;28;20051;-65
2022/02/07 09:43:29;;;;;;;24.47;11.43;;;;;;;7.19;46.90;97862.06;5070783;28;20040;-66
2022/02/07 09:46:04;;;;;;;24.07;11.27;;;;;;;6.84;46.86;97864.34;5055946;28;20158;-65
2022/02/07 09:48:32;;;;;;;22.77;11.80;;;;;;;7.00;46.69;97875.75;5089930;28;20194;-67
2022/02/07 09:50:58;;;;;;;24.67;11.53;;;;;;;6.86;46.55;97885.28;5089595;28;20036;-65
2022/02/07 09:53:27;;;;;;;18.20;10.70;;;;;;;6.90;46.53;97894.50;5089154;28;20044;-64
2022/02/07 09:55:54;;;;;;;22.40;10.23;;;;;;;7.01;46.85;97880.88;5071865;28;20178;-64
2022/02/07 09:58:21;;;;;;;19.90;10.43;;;;;;;7.06;46.46;97901.47;5055139;28;20581;-65
2022/02/07 10:00:47;;;;;;;18.97;10.07;;;;;;;7.05;46.56;97898.00;5072446;28;20044;-65
2022/02/07 10:03:22;;;;;;;21.87;11.03;;;;;;;6.95;46.98;97886.84;5089627;28;20060;-65
2022/02/07 10:05:52;;;;;;;21.97;10.70;;;;;;;7.07;46.41;97893.38;5089901;28;20201;-68
2022/02/07 10:19:12;;;;;;;16.87;9.70;;;;;;;6.98;46.11;97889.13;5089608;28;20047;-65
2022/02/07 10:46:09;;;;;;;19.77;10.50;;;;;;;7.42;45.93;97886.59;5098863;28;20051;-66
2022/02/07 10:48:55;;;;;;;15.73;8.73;;;;;;;7.47;45.05;97892.97;5081686;28;20396;-66
2022/02/07 10:51:22;;;;;;;14.83;9.27;;;;;;;7.33;45.82;97888.50;5108775;28;20461;-66
2022/02/07 10:53:57;;;;;;;17.30;10.43;;;;;;;7.67;45.56;97885.34;5090961;28;20043;-66
2022/02/07 10:56:35;;;;;;;12.97;8.70;;;;;;;7.33;45.07;97880.56;5091735;28;20035;-65
2022/02/07 10:59:06;;;;;;;17.03;10.20;;;;;;;7.46;44.95;97887.84;5050814;28;20036;-66
2022/02/07 11:04:40;;;;;;;18.20;9.43;;;;;;;7.74;44.47;97876.50;5055707;28;20119;-66
2022/02/07 11:07:06;;;;;;;18.80;9.20;;;;;;;7.47;44.65;97890.34;5088895;28;20404;-66
2022/02/07 11:09:44;;;;;;;24.00;10.47;;;;;;;7.37;44.83;97883.66;5088736;28;20072;-67
2022/02/07 11:12:20;;;;;;;19.00;8.70;;;;;;;7.33;44.86;97879.75;5069042;28;20736;-67
2022/02/07 11:17:58;;;;;;;15.63;9.67;;;;;;;7.51;44.65;97878.41;5089121;28;20071;-66
2022/02/07 11:25:49;;;;;;;27.63;10.87;;;;;;;7.56;45.18;97880.50;5103197;28;20055;-66
2022/02/07 11:28:22;;;;;;;22.90;8.83;;;;;;;7.62;45.07;97882.41;5108048;28;20039;-67
2022/02/07 11:30:54;;;;;;;30.73;10.47;;;;;;;7.84;48.25;97881.50;5109076;28;20076;-66
2022/02/07 11:33:42;;;;;;;17.47;9.60;;;;;;;8.07;45.68;97876.91;5108291;28;20065;-66
2022/02/07 11:36:11;;;;;;;15.77;9.33;;;;;;;7.97;44.36;97887.78;5089853;28;20072;-66
2022/02/07 11:38:54;;;;;;;16.57;8.87;;;;;;;8.31;44.22;97885.38;5108713;28;20148;-66
2022/02/07 11:41:20;;;;;;;17.50;9.40;;;;;;;7.85;44.14;97881.31;5088062;28;20682;-69
2022/02/07 11:43:46;;;;;;;16.17;8.90;;;;;;;8.15;43.94;97908.50;5111448;28;20171;-68
2022/02/07 11:46:15;;;;;;;17.73;8.43;;;;;;;8.06;43.57;97885.84;5094235;28;20106;-68
2022/02/07 11:48:45;;;;;;;15.70;8.93;;;;;;;8.47;43.96;97874.56;5093516;28;20054;-67
2022/02/07 11:51:19;;;;;;;18.30;9.10;;;;;;;8.51;43.55;97880.28;5072967;28;20082;-69
2022/02/07 11:53:49;;;;;;;21.30;9.30;;;;;;;7.96;44.16;97882.66;5076079;28;20414;-68
2022/02/07 11:56:48;;;;;;;21.63;10.33;;;;;;;8.24;43.77;97881.03;5112057;28;20510;-67
2022/02/07 12:02:08;;;;;;;17.33;9.23;;;;;;;7.93;44.05;97877.75;5112350;28;20039;-67
2022/02/07 12:04:40;;;;;;;18.40;9.70;;;;;;;7.84;44.17;97895.50;5093799;28;20079;-68
2022/02/07 12:07:20;;;;;;;21.30;9.50;;;;;;;8.04;43.88;97882.56;5111665;28;20522;-70
2022/02/07 12:12:57;;;;;;;24.30;10.23;;;;;;;7.72;44.49;97881.13;5095088;28;20431;-68
2022/02/07 12:15:33;;;;;;;21.10;10.90;;;;;;;7.69;44.63;97875.38;5094475;28;20143;-68
2022/02/07 12:18:14;;;;;;;23.97;10.60;;;;;;;7.90;44.54;97875.47;5089957;28;20492;-68
2022/02/07 12:20:44;;;;;;;17.13;10.02;;;;;;;7.68;44.55;97881.69;5090464;28;20442;-68
2022/02/07 12:23:15;;;;;;;17.88;9.45;;;;;;;7.42;45.16;97870.75;5090826;28;20515;-67
2022/02/07 12:25:55;;;;;;;20.77;10.13;;;;;;;7.48;45.22;97862.91;5073144;28;20463;-67
2022/02/07 12:31:42;;;;;;;23.17;11.67;;;;;;;7.15;45.95;97863.44;5090879;28;20051;-67
2022/02/07 12:34:15;;;;;;;19.85;9.57;;;;;;;7.42;45.25;97865.47;5082037;28;20060;-67
2022/02/07 12:36:40;;;;;;;;;;;;;;;7.61;44.70;97871.00;5079803;28;20043;-67
2022/02/07 12:39:09;;;;;;;21.13;10.20;;;;;;;6.87;45.38;97848.16;5097959;28;19965;-66
2022/02/07 12:41:36;;;;;;;21.27;10.20;;;;;;;7.23;45.43;97861.50;5064905;28;20039;-66
2022/02/07 12:44:04;;;;;;;21.67;10.13;;;;;;;7.24;45.17;97880.81;5065328;28;20465;-67
2022/02/07 12:46:31;;;;;;;19.07;10.00;;;;;;;7.09;45.54;97875.50;5099319;28;20036;-66
2022/02/07 12:51:42;;;;;;;18.43;10.20;;;;;;;6.68;46.27;97839.91;5100273;28;20482;-68
2022/02/07 12:54:10;;;;;;;24.37;10.30;;;;;;;6.67;46.61;97864.66;5095656;28;20043;-69
2022/02/07 12:56:37;;;;;;;21.53;10.33;;;;;;;6.68;46.36;97871.56;5091002;28;20040;-67
2022/02/07 12:59:03;;;;;;;23.23;9.77;;;;;;;6.59;46.44;97843.63;5090430;28;20504;-67
2022/02/07 13:01:35;;;;;;;23.17;10.90;;;;;;;7.02;46.05;97871.13;5072466;28;20044;-66
2022/02/07 13:04:04;;;;;;;21.37;10.00;;;;;;;7.48;45.72;97880.56;5071945;28;20074;-66
2022/02/07 13:06:43;;;;;;;19.80;10.33;;;;;;;7.42;45.39;97868.94;5090567;28;20040;-67
2022/02/07 13:09:28;;;;;;;27.67;10.00;;;;;;;7.31;45.27;97874.66;5090833;28;20048;-67
2022/02/07 13:14:30;;;;;;;22.30;10.43;;;;;;;7.04;45.73;97861.22;5055672;28;20047;-66
2022/02/07 13:16:56;;;;;;;27.33;10.53;;;;;;;6.53;45.83;97828.50;5055411;28;20551;-67
2022/02/07 13:19:24;;;;;;;20.23;10.30;;;;;;;6.54;45.97;97812.50;5055333;28;20075;-66
2022/02/07 13:21:54;;;;;;;21.77;10.63;;;;;;;6.95;45.97;97873.66;5075707;28;20095;-66
2022/02/07 13:24:30;;;;;;;19.95;10.25;;;;;;;6.71;46.45;97821.94;5110482;28;20048;-66
2022/02/07 13:26:57;;;;;;;20.70;11.17;;;;;;;6.35;47.36;97859.63;5076417;28;20126;-67
2022/02/07 13:29:47;;;;;;;19.80;10.17;;;;;;;6.89;46.54;97851.44;5110319;28;20040;-66
2022/02/07 13:32:16;;;;;;;20.57;10.37;;;;;;;6.92;46.35;97862.66;5106638;28;20185;-66
2022/02/07 13:34:42;;;;;;;18.57;10.00;;;;;;;6.82;46.75;97861.09;5082326;28;20028;-65
2022/02/07 13:37:15;;;;;;;15.00;8.77;;;;;;;6.54;46.66;97857.34;5081315;28;20038;-65
2022/02/07 13:40:12;;;;;;;18.07;10.10;;;;;;;7.27;45.86;97872.53;5098278;28;20052;-67
2022/02/07 13:42:49;;;;;;;19.33;9.77;;;;;;;7.11;46.14;97870.03;5089189;28;20135;-66
2022/02/07 13:45:16;;;;;;;21.93;10.77;;;;;;;6.85;46.37;97871.28;5110443;28;20058;-66
2022/02/07 13:47:44;;;;;;;18.77;10.47;;;;;;;6.88;46.29;97851.63;5110576;28;20048;-66
2022/02/07 13:50:16;;;;;;;20.43;11.10;;;;;;;6.66;46.86;97863.84;5110634;28;20128;-70
2022/02/07 13:52:44;;;;;;;15.67;9.50;;;;;;;6.82;46.78;97862.88;5110259;28;20043;-66
2022/02/07 13:55:37;;;;;;;19.60;10.53;;;;;;;7.18;46.31;97866.50;5110406;28;20039;-69
2022/02/07 13:58:33;;;;;;;22.03;11.00;;;;;;;6.94;46.87;97864.09;5091531;28;20044;-65
2022/02/07 14:01:10;;;;;;;18.80;10.17;;;;;;;7.15;46.81;97852.88;5091378;28;20040;-72
2022/02/07 14:03:36;;;;;;;24.00;10.97;;;;;;;6.88;46.82;97867.47;5091377;28;20052;-65
2022/02/07 14:06:17;;;;;;;23.27;11.47;;;;;;;6.92;46.92;97857.38;5075112;28;20054;-65
2022/02/07 14:08:56;;;;;;;25.85;10.90;;;;;;;6.87;47.08;97868.47;5091728;28;20044;-65
2022/02/07 14:11:28;;;;;;;31.67;12.00;;;;;;;6.66;47.63;97858.56;5074408;28;20083;-66
2022/02/07 14:13:56;;;;;;;25.97;11.43;;;;;;;6.63;47.74;97843.09;5073779;28;20057;-67
2022/02/07 14:16:23;;;;;;;22.90;11.67;;;;;;;6.35;48.03;97870.97;5089138;28;20717;-66
2022/02/07 14:18:50;;;;;;;22.93;11.80;;;;;;;6.21;48.30;97821.63;5055594;28;20693;-65
2022/02/07 14:21:18;;;;;;;26.40;11.63;;;;;;;6.54;47.88;97859.16;5068227;28;20496;-65